.
WxDataArchive / Data Records for 2006-02-28
2006-02-27 February 2006 2006-03-01

Data Records for Tuesday, 28 February 2006

Time	Temp	Chill	HIndex	Humid	Dewpt	 Wind 	HiWind	WindDir	Rain 	Barom 
-----	----	-----	------	-----	-----	------	------	-------	-----	----- 
00:00	26.9	26.9	26.9	79	21.3	0	1	90	0.00	30.013 
00:05	26.7	26.7	26.7	79	21.1	0	2	90	0.00	30.013 
00:10	26.6	26.6	26.6	79	21.0	0	3	112	0.00	30.013 
00:15	26.4	26.4	26.4	80	21.1	0	2	112	0.00	30.005 
00:20	26.4	26.4	26.4	80	21.1	1	3	90	0.00	30.005 
00:25	26.3	26.3	26.3	80	21.0	0	2	68	0.00	30.005 
00:30	26.1	26.1	26.1	81	21.1	0	2	68	0.00	30.001 
00:35	26.0	26.0	26.0	81	21.0	0	2	90	0.00	30.001 
00:40	25.8	25.8	25.8	81	20.8	0	3	90	0.00	30.001 
00:45	25.8	25.8	25.8	81	20.8	0	2	90	0.00	30.003 
00:50	25.7	25.7	25.7	81	20.7	0	2	68	0.00	30.003 
00:55	25.6	25.6	25.6	81	20.6	0	1	68	0.00	30.003 
01:00	25.4	25.4	25.4	81	20.4	0	2	68	0.00	30.005 
01:05	25.4	25.4	25.4	81	20.4	0	1	68	0.00	30.005 
01:10	25.3	25.3	25.3	80	20.0	0	1	68	0.00	30.005 
01:15	25.1	25.1	25.1	80	19.8	0	1	68	0.00	30.014 
01:20	25.0	25.0	25.0	79	19.4	0	2	68	0.00	30.014 
01:25	24.8	24.8	24.8	78	18.9	0	2	68	0.00	30.014 
01:30	24.7	24.7	24.7	78	18.8	0	1	68	0.00	30.016 
01:35	24.7	24.7	24.7	78	18.8	0	1	68	0.00	30.016 
01:40	24.5	24.5	24.5	78	18.6	0	1	68	0.00	30.016 
01:45	24.4	24.4	24.4	78	18.5	0	0	---	0.00	30.018 
01:50	24.2	24.2	24.2	78	18.3	0	1	68	0.00	30.018 
01:55	24.1	24.1	24.1	78	18.3	0	1	68	0.00	30.018 
02:00	24.1	24.1	24.1	78	18.3	0	1	68	0.00	30.022 
02:05	24.1	24.1	24.1	78	18.3	0	0	---	0.00	30.022 
02:10	23.9	23.9	23.9	78	18.1	0	0	---	0.00	30.022 
02:15	23.8	23.8	23.8	78	18.0	0	1	68	0.00	30.032 
02:20	23.8	23.8	23.8	78	18.0	0	1	68	0.00	30.032 
02:25	23.6	23.6	23.6	78	17.8	0	0	---	0.00	30.032 
02:30	23.6	23.6	23.6	78	17.8	0	1	68	0.00	30.033 
02:35	23.5	23.5	23.5	78	17.7	0	1	68	0.00	30.033 
02:40	23.5	23.5	23.5	78	17.7	0	1	68	0.00	30.033 
02:45	23.3	23.3	23.3	78	17.5	0	0	---	0.00	30.033 
02:50	23.2	23.2	23.2	78	17.4	0	0	---	0.00	30.033 
02:55	23.0	23.0	23.0	79	17.5	0	0	---	0.00	30.033 
03:00	22.9	22.9	22.9	79	17.4	0	0	---	0.00	30.032 
03:05	22.9	22.9	22.9	80	17.7	0	0	---	0.00	30.032 
03:10	22.9	22.9	22.9	80	17.7	0	1	68	0.00	30.032 
03:15	23.0	23.0	23.0	79	17.5	0	1	68	0.00	30.026 
03:20	23.2	23.2	23.2	79	17.7	0	1	68	0.00	30.026 
03:25	23.5	23.5	23.5	78	17.7	0	1	68	0.00	30.026 
03:30	23.5	23.5	23.5	78	17.7	0	1	68	0.00	30.019 
03:35	23.6	23.6	23.6	78	17.8	1	3	68	0.00	30.019 
03:40	23.9	23.9	23.9	78	18.1	0	2	68	0.00	30.019 
03:45	23.9	23.9	23.9	77	17.8	1	3	112	0.00	30.017 
03:50	23.9	23.9	23.9	77	17.8	0	2	112	0.00	30.017 
03:55	23.9	23.9	23.9	77	17.8	0	2	112	0.00	30.017 
04:00	23.9	23.9	23.9	77	17.8	0	2	90	0.00	30.015 
04:05	23.9	23.9	23.9	77	17.8	0	2	90	0.00	30.015 
04:10	23.8	23.8	23.8	75	17.1	1	3	135	0.00	30.015 
04:15	23.8	23.8	23.8	74	16.7	1	2	90	0.00	30.021 
04:20	23.6	23.6	23.6	70	15.3	1	4	45	0.00	30.021 
04:25	23.5	23.5	23.5	69	14.9	1	4	135	0.00	30.021 
04:30	23.3	23.3	23.3	69	14.7	1	4	90	0.00	30.024 
04:35	23.2	23.2	23.2	69	14.6	1	2	22	0.00	30.024 
04:40	22.9	22.9	22.9	68	13.9	1	2	90	0.00	30.024 
04:45	22.5	22.5	22.5	67	13.2	1	4	45	0.00	30.026 
04:50	22.4	22.4	22.4	67	13.1	1	3	45	0.00	30.026 
04:55	22.2	22.2	22.2	67	12.9	1	4	90	0.00	30.026 
05:00	21.9	21.9	21.9	66	12.3	1	4	45	0.00	30.034 
05:05	21.8	21.8	21.8	65	11.9	2	6	112	0.00	30.034 
05:10	21.6	21.6	21.6	66	12.0	1	4	112	0.00	30.034 
05:15	21.4	21.4	21.4	66	11.8	1	3	68	0.00	30.034 
05:20	21.3	21.3	21.3	67	12.1	1	4	45	0.00	30.034 
05:25	21.1	21.1	21.1	67	11.9	1	3	22	0.00	30.034 
05:30	21.0	21.0	21.0	67	11.8	1	2	90	0.00	30.037 
05:35	20.8	20.8	20.8	68	11.9	1	2	90	0.00	30.037 
05:40	20.6	20.6	20.6	68	11.7	0	2	68	0.00	30.037 
05:45	20.5	20.5	20.5	68	11.6	1	3	45	0.00	30.039 
05:50	20.3	20.3	20.3	68	11.5	1	4	45	0.00	30.039 
05:55	20.3	20.3	20.3	66	10.8	1	4	68	0.00	30.039 
06:00	20.3	20.3	20.3	67	11.1	0	2	112	0.00	30.050 
06:05	20.3	20.3	20.3	66	10.8	1	4	90	0.00	30.050 
06:10	20.3	20.3	20.3	67	11.1	1	2	68	0.00	30.050 
06:15	20.2	20.2	20.2	65	10.3	1	3	45	0.00	30.061 
06:20	20.2	20.2	20.2	65	10.3	2	5	90	0.00	30.061 
06:25	20.2	20.2	20.2	65	10.3	1	4	45	0.00	30.061 
06:30	20.2	20.2	20.2	65	10.3	1	3	68	0.00	30.059 
06:35	20.2	20.2	20.2	66	10.7	1	5	90	0.00	30.059 
06:40	20.2	20.2	20.2	66	10.7	1	3	45	0.00	30.059 
06:45	20.0	20.0	20.0	66	10.5	1	3	112	0.00	30.064 
06:50	19.9	19.9	19.9	65	10.1	1	4	45	0.00	30.064 
06:55	19.9	19.9	19.9	66	10.4	1	5	45	0.00	30.064 
07:00	19.7	19.7	19.7	67	10.5	1	3	22	0.00	30.082 
07:05	19.7	19.7	19.7	67	10.5	1	3	68	0.00	30.082 
07:10	19.5	19.5	19.5	67	10.4	1	3	68	0.00	30.082 
07:15	19.5	19.5	19.5	67	10.4	1	2	45	0.00	30.086 
07:20	19.4	19.4	19.4	67	10.3	0	2	68	0.00	30.086 
07:25	19.4	19.4	19.4	67	10.3	0	2	68	0.00	30.086 
07:30	19.4	19.4	19.4	67	10.3	1	3	68	0.00	30.091 
07:35	19.4	19.4	19.4	66	9.9	1	2	22	0.00	30.091 
07:40	19.5	19.5	19.5	66	10.0	1	5	22	0.00	30.091 
07:45	19.9	19.9	19.9	64	9.7	1	3	90	0.00	30.083 
07:50	20.0	20.0	20.0	64	9.8	1	4	112	0.00	30.083 
07:55	20.2	20.2	20.2	64	10.0	1	2	45	0.00	30.083 
08:00	20.3	20.3	20.3	63	9.7	1	4	90	0.00	30.085 
08:05	20.3	20.3	20.3	63	9.7	1	3	90	0.00	30.085 
08:10	20.3	20.3	20.3	62	9.4	2	5	112	0.00	30.085 
08:15	20.5	20.5	20.5	62	9.6	1	4	90	0.00	30.081 
08:20	20.5	20.5	20.5	61	9.2	2	4	90	0.00	30.081 
08:25	20.6	20.6	20.6	61	9.3	1	3	22	0.00	30.081 
08:30	20.8	20.8	20.8	60	9.1	1	4	90	0.00	30.089 
08:35	20.8	20.8	20.8	58	8.4	3	6	90	0.00	30.089 
08:40	21.0	21.0	21.0	61	9.7	1	4	45	0.00	30.089 
08:45	21.1	21.1	21.1	58	8.7	3	5	90	0.00	30.090 
08:50	21.3	21.3	21.3	59	9.2	2	5	45	0.00	30.090 
08:55	21.6	21.6	21.6	57	8.8	3	6	90	0.00	30.090 
09:00	21.9	21.9	21.9	55	8.2	3	6	112	0.00	30.099 
09:05	22.2	22.2	22.2	58	9.7	3	7	112	0.00	30.099 
09:10	22.2	22.2	22.2	57	9.3	2	5	112	0.00	30.099 
09:15	22.9	22.9	22.9	57	10.0	2	5	112	0.00	30.100 
09:20	23.2	17.9	23.2	55	9.5	4	8	112	0.00	30.100 
09:25	23.2	17.9	23.2	55	9.5	4	7	112	0.00	30.100 
09:30	23.8	18.6	23.8	54	9.6	4	7	112	0.00	30.100 
09:35	24.1	19.0	24.1	54	9.9	4	7	112	0.00	30.100 
09:40	24.7	24.7	24.7	54	10.5	3	6	90	0.00	30.100 
09:45	25.1	25.1	25.1	55	11.2	3	6	112	0.00	30.091 
09:50	25.6	25.6	25.6	54	11.3	2	6	90	0.00	30.091 
09:55	26.0	26.0	26.0	53	11.2	3	6	112	0.00	30.091 
10:00	26.0	26.0	26.0	54	11.7	3	6	90	0.00	30.078 
10:05	26.3	26.3	26.3	53	11.5	2	5	112	0.00	30.078 
10:10	26.6	26.6	26.6	51	10.9	3	9	112	0.00	30.078 
10:15	26.6	26.6	26.6	52	11.4	3	7	90	0.00	30.071 
10:20	26.9	26.9	26.9	51	11.2	3	7	90	0.00	30.071 
10:25	27.0	27.0	27.0	51	11.3	3	5	90	0.00	30.071 
10:30	27.0	27.0	27.0	52	11.7	3	5	90	0.00	30.070 
10:35	27.2	27.2	27.2	51	11.5	2	6	112	0.00	30.070 
10:40	27.9	27.9	27.9	52	12.6	1	3	90	0.00	30.070 
10:45	28.7	28.7	28.7	51	12.9	1	4	135	0.00	30.060 
10:50	29.1	29.1	29.1	50	12.8	1	5	90	0.00	30.060 
10:55	29.5	29.5	29.5	48	12.3	1	4	90	0.00	30.060 
11:00	29.4	29.4	29.4	47	11.7	2	4	112	0.00	30.057 
11:05	29.1	29.1	29.1	49	12.4	2	5	112	0.00	30.057 
11:10	29.1	29.1	29.1	49	12.4	1	2	90	0.00	30.057 
11:15	29.7	29.7	29.7	48	12.4	3	6	90	0.00	30.053 
11:20	29.7	29.7	29.7	46	11.5	1	4	112	0.00	30.053 
11:25	30.3	30.3	30.3	46	12.0	3	5	112	0.00	30.053 
11:30	30.4	30.4	30.4	45	11.6	2	6	112	0.00	30.053 
11:35	30.3	30.3	30.3	45	11.5	2	6	112	0.00	30.053 
11:40	30.6	30.6	30.6	45	11.8	2	6	135	0.00	30.053 
11:45	30.6	30.6	30.6	44	11.3	1	2	45	0.00	30.052 
11:50	30.9	30.9	30.9	45	12.1	2	5	90	0.00	30.052 
11:55	31.0	31.0	31.0	43	11.2	2	5	90	0.00	30.052 
12:00	31.2	31.2	31.2	43	11.3	2	4	90	0.00	30.048 
12:05	31.8	31.8	31.8	43	11.9	2	4	90	0.00	30.048 
12:10	31.8	31.8	31.8	40	10.3	2	6	90	0.00	30.048 
12:15	32.2	32.2	32.2	44	12.8	0	3	90	0.00	30.038 
12:20	32.9	32.9	32.9	39	10.7	1	3	112	0.00	30.038 
12:25	33.2	33.2	33.2	40	11.5	2	4	112	0.00	30.038 
12:30	33.1	33.1	33.1	40	11.4	1	3	90	0.00	30.023 
12:35	33.1	33.1	33.1	41	12.0	2	6	90	0.00	30.023 
12:40	33.4	33.4	33.4	44	13.9	1	3	90	0.00	30.023 
12:45	34.0	34.0	34.0	42	13.3	1	4	90	0.00	30.022 
12:50	33.7	33.7	33.7	40	12.0	2	5	248	0.00	30.022 
12:55	34.0	34.0	34.0	41	12.8	1	4	248	0.00	30.022 
13:00	34.4	34.4	34.4	38	11.5	1	3	270	0.00	30.018 
13:05	34.6	34.6	34.6	41	13.3	1	5	90	0.00	30.018 
13:10	34.3	34.3	34.3	39	11.9	3	5	90	0.00	30.018 
13:15	34.6	34.6	34.6	42	13.9	1	5	112	0.00	30.004 
13:20	34.9	34.9	34.9	39	12.5	1	5	90	0.00	30.004 
13:25	34.9	34.9	34.9	40	13.1	0	2	90	0.00	30.004 
13:30	35.5	35.5	35.5	38	12.4	1	4	90	0.00	29.994 
13:35	36.0	36.0	36.0	38	12.9	1	3	90	0.00	29.994 
13:40	36.2	36.2	36.2	36	11.8	1	3	270	0.00	29.994 
13:45	36.2	36.2	36.2	37	12.5	1	4	270	0.00	29.985 
13:50	36.2	36.2	36.2	38	13.1	1	3	90	0.00	29.985 
13:55	36.0	36.0	36.0	38	12.9	2	4	68	0.00	29.985 
14:00	35.9	35.9	35.9	40	14.0	1	3	270	0.00	29.973 
14:05	36.3	36.3	36.3	43	16.0	1	3	270	0.00	29.973 
14:10	36.5	36.5	36.5	36	12.1	1	3	202	0.00	29.973 
14:15	36.2	36.2	36.2	39	13.7	2	6	90	0.00	29.973 
14:20	36.2	36.2	36.2	40	14.2	1	4	112	0.00	29.973 
14:25	36.3	36.3	36.3	38	13.2	0	2	112	0.00	29.973 
14:30	36.5	36.5	36.5	38	13.3	1	2	112	0.00	29.970 
14:35	36.9	36.9	36.9	41	15.4	1	3	90	0.00	29.970 
14:40	37.0	37.0	37.0	37	13.2	1	3	90	0.00	29.970 
14:45	37.3	37.3	37.3	35	12.2	0	1	0	0.00	29.961 
14:50	37.8	37.8	37.8	37	13.9	1	2	315	0.00	29.961 
14:55	38.3	38.3	38.3	39	15.5	1	3	158	0.00	29.961 
15:00	38.6	38.6	38.6	37	14.6	0	2	158	0.00	29.954 
15:05	38.9	38.9	38.9	33	12.3	1	6	248	0.00	29.954 
15:10	38.3	38.3	38.3	34	12.4	1	3	90	0.00	29.954 
15:15	38.0	38.0	38.0	34	12.2	1	3	68	0.00	29.949 
15:20	37.9	37.9	37.9	34	12.1	1	5	68	0.00	29.949 
15:25	38.3	38.3	38.3	35	13.1	0	2	22	0.00	29.949 
15:30	38.9	38.9	38.9	33	12.3	1	3	22	0.00	29.952 
15:35	38.8	38.8	38.8	33	12.2	2	4	112	0.00	29.952 
15:40	38.5	38.5	38.5	33	11.9	1	3	112	0.00	29.952 
15:45	38.8	38.8	38.8	33	12.2	0	2	112	0.00	29.950 
15:50	39.2	39.2	39.2	32	11.8	0	1	112	0.00	29.950 
15:55	39.5	39.5	39.5	32	12.1	0	3	112	0.00	29.950 
16:00	39.6	39.6	39.6	32	12.2	1	3	248	0.00	29.947 
16:05	40.2	40.2	40.2	31	12.0	1	3	248	0.00	29.947 
16:10	40.3	40.3	40.3	31	12.1	1	2	248	0.00	29.947 
16:15	39.9	39.9	39.9	31	11.7	1	3	248	0.00	29.940 
16:20	39.6	39.6	39.6	31	11.5	0	2	135	0.00	29.940 
16:25	39.6	39.6	39.6	32	12.2	0	2	135	0.00	29.940 
16:30	39.6	39.6	39.6	32	12.2	0	2	135	0.00	29.937 
16:35	39.5	39.5	39.5	31	11.4	0	2	315	0.00	29.937 
16:40	39.5	39.5	39.5	32	12.1	0	2	315	0.00	29.937 
16:45	39.6	39.6	39.6	34	13.6	0	1	315	0.00	29.936 
16:50	39.9	39.9	39.9	32	12.5	0	1	315	0.00	29.936 
16:55	39.9	39.9	39.9	31	11.7	1	2	315	0.00	29.936 
17:00	39.8	39.8	39.8	32	12.4	0	1	315	0.00	29.928 
17:05	39.8	39.8	39.8	33	13.1	0	1	315	0.00	29.928 
17:10	39.8	39.8	39.8	32	12.4	1	2	0	0.00	29.928 
17:15	39.5	39.5	39.5	32	12.1	0	2	0	0.00	29.928 
17:20	39.5	39.5	39.5	32	12.1	0	1	0	0.00	29.928 
17:25	39.3	39.3	39.3	34	13.3	0	1	0	0.00	29.928 
17:30	39.3	39.3	39.3	34	13.3	1	3	0	0.00	29.927 
17:35	39.3	39.3	39.3	33	12.6	0	2	90	0.00	29.927 
17:40	39.2	39.2	39.2	33	12.5	0	1	90	0.00	29.927 
17:45	39.1	39.1	39.1	33	12.5	0	1	90	0.00	29.919 
17:50	38.9	38.9	38.9	32	11.6	0	0	---	0.00	29.919 
17:55	38.8	38.8	38.8	33	12.2	0	1	90	0.00	29.919 
18:00	38.6	38.6	38.6	34	12.7	0	1	90	0.00	29.913 
18:05	38.5	38.5	38.5	35	13.3	0	1	90	0.00	29.913 
18:10	38.3	38.3	38.3	34	12.4	0	0	---	0.00	29.913 
18:15	38.2	38.2	38.2	35	13.0	0	1	90	0.00	29.906 
18:20	38.0	38.0	38.0	36	13.4	0	1	90	0.00	29.906 
18:25	37.8	37.8	37.8	38	14.5	0	2	90	0.00	29.906 
18:30	37.6	37.6	37.6	37	13.7	1	2	90	0.00	29.903 
18:35	37.5	37.5	37.5	38	14.2	0	1	90	0.00	29.903 
18:40	37.3	37.3	37.3	39	14.6	0	1	90	0.00	29.903 
18:45	37.0	37.0	37.0	39	14.4	0	0	---	0.00	29.909 
18:50	36.8	36.8	36.8	38	13.6	0	1	90	0.00	29.909 
18:55	36.5	36.5	36.5	39	13.9	0	0	---	0.00	29.909 
19:00	36.0	36.0	36.0	39	13.5	0	0	---	0.00	29.912 
19:05	35.6	35.6	35.6	39	13.1	0	0	---	0.00	29.912 
19:10	35.0	35.0	35.0	40	13.1	0	0	---	0.00	29.912 
19:15	34.6	34.6	34.6	41	13.3	0	0	---	0.00	29.920 
19:20	34.3	34.3	34.3	42	13.6	0	0	---	0.00	29.920 
19:25	34.3	34.3	34.3	44	14.7	0	0	---	0.00	29.920 
19:30	34.4	34.4	34.4	45	15.3	0	0	---	0.00	29.924 
19:35	34.6	34.6	34.6	44	15.0	0	0	---	0.00	29.924 
19:40	34.7	34.7	34.7	43	14.5	0	0	---	0.00	29.924 
19:45	34.9	34.9	34.9	45	15.7	0	0	---	0.00	29.931 
19:50	35.0	35.0	35.0	46	16.3	0	0	---	0.00	29.931 
19:55	35.2	35.2	35.2	44	15.5	0	1	90	0.00	29.931 
20:00	35.5	35.5	35.5	43	15.2	0	1	90	0.00	29.928 
20:05	35.6	35.6	35.6	41	14.2	0	2	90	0.00	29.928 
20:10	35.9	35.9	35.9	42	15.1	1	2	90	0.00	29.928 
20:15	36.0	36.0	36.0	43	15.7	0	3	90	0.00	29.926 
20:20	35.9	35.9	35.9	43	15.6	0	1	90	0.00	29.926 
20:25	35.9	35.9	35.9	42	15.1	0	1	90	0.00	29.926 
20:30	35.9	35.9	35.9	43	15.6	0	2	90	0.00	29.933 
20:35	35.9	35.9	35.9	43	15.6	0	2	90	0.00	29.933 
20:40	35.9	35.9	35.9	41	14.5	1	2	90	0.00	29.933 
20:45	36.0	36.0	36.0	41	14.6	0	2	90	0.00	29.930 
20:50	36.0	36.0	36.0	42	15.2	0	1	90	0.00	29.930 
20:55	36.0	36.0	36.0	42	15.2	0	0	---	0.00	29.930 
21:00	35.9	35.9	35.9	42	15.1	0	1	90	0.00	29.937 
21:05	35.8	35.8	35.8	42	15.0	0	1	90	0.00	29.937 
21:10	35.8	35.8	35.8	42	15.0	0	1	90	0.00	29.937 
21:15	35.8	35.8	35.8	41	14.4	0	1	90	0.00	29.922 
21:20	35.8	35.8	35.8	41	14.4	0	1	90	0.00	29.922 
21:25	35.8	35.8	35.8	41	14.4	0	1	90	0.00	29.922 
21:30	35.8	35.8	35.8	42	15.0	0	2	90	0.00	29.910 
21:35	35.6	35.6	35.6	42	14.8	0	1	90	0.00	29.910 
21:40	35.5	35.5	35.5	42	14.7	0	1	90	0.00	29.910 
21:45	35.5	35.5	35.5	42	14.7	0	1	90	0.00	29.919 
21:50	35.5	35.5	35.5	43	15.2	0	1	90	0.00	29.919 
21:55	35.5	35.5	35.5	43	15.2	0	1	90	0.00	29.919 
22:00	35.6	35.6	35.6	42	14.8	0	2	90	0.00	29.920 
22:05	35.6	35.6	35.6	42	14.8	0	1	68	0.00	29.920 
22:10	35.8	35.8	35.8	42	15.0	0	2	68	0.00	29.920 
22:15	35.8	35.8	35.8	41	14.4	1	2	68	0.00	29.921 
22:20	35.8	35.8	35.8	40	13.9	0	2	68	0.00	29.921 
22:25	35.8	35.8	35.8	41	14.4	1	3	45	0.00	29.921 
22:30	35.6	35.6	35.6	41	14.2	0	2	45	0.00	29.926 
22:35	35.6	35.6	35.6	43	15.3	0	1	45	0.00	29.926 
22:40	35.5	35.5	35.5	44	15.8	0	1	45	0.00	29.926 
22:45	35.3	35.3	35.3	46	16.6	0	1	45	0.00	29.933 
22:50	35.2	35.2	35.2	48	17.5	0	1	45	0.00	29.933 
22:55	35.0	35.0	35.0	46	16.3	0	2	45	0.00	29.933 
23:00	34.9	34.9	34.9	45	15.7	1	2	45	0.00	29.933 
23:05	34.7	34.7	34.7	45	15.6	0	2	45	0.00	29.933 
23:10	34.6	34.6	34.6	43	14.4	1	3	90	0.00	29.933 
23:15	34.6	34.6	34.6	41	13.3	1	3	68	0.00	29.927 
23:20	34.6	34.6	34.6	42	13.9	1	2	68	0.00	29.927 
23:25	34.4	34.4	34.4	39	12.0	1	2	68	0.00	29.927 
23:30	34.4	34.4	34.4	39	12.0	1	5	90	0.00	29.935 
23:35	34.3	34.3	34.3	38	11.4	1	3	68	0.00	29.935 
23:40	34.3	34.3	34.3	39	11.9	1	3	68	0.00	29.935 
23:45	34.1	34.1	34.1	39	11.8	1	2	68	0.00	29.936 
23:50	34.1	34.1	34.1	37	10.6	1	2	68	0.00	29.936 
23:55	34.1	34.1	34.1	37	10.6	1	3	45	0.00	29.936 

CoCoRaHS
IN-AL-39
A2 Web Hosting
Creative Commons License
GoDaddy
Look for:

loaded 2017-12-12 07:36:59 • last modified 2010-11-18 10:43:29
Privacy PolicyDisclaimer
• wx.awcolley.com is powered by PmWiki v.2002016 •
• all content (unless otherwise noted) © 2017 A W Colley